Time;durP1;ratioP1;P1;durP2;ratioP2;P2;SDS_P1;SDS_P2;PMS_P1;PMS_P2;Temp;Humidity;BMP_temperature;BMP_pressure;BME280_temperature;BME280_humidity;BME280_pressure;Samples;Min_cycle;Max_cycle;Signal;HPM_P1;HPM_P2
2022/03/23 00:01:24;;;;;;;22.30;14.98;;;3.80;82.00;;;;;;4909650;28;20242;-61
2022/03/23 00:03:51;;;;;;;25.15;16.15;;;3.80;81.70;;;;;;4908917;29;20047;-61
2022/03/23 00:06:18;;;;;;;25.13;16.40;;;3.70;82.30;;;;;;4908328;28;20801;-61
2022/03/23 00:08:45;;;;;;;;;;;3.70;82.30;;;;;;4908768;29;20102;-61
2022/03/23 00:11:12;;;;;;;29.65;15.88;;;3.60;82.70;;;;;;4908269;28;20769;-61
2022/03/23 00:13:39;;;;;;;27.17;16.05;;;3.60;82.90;;;;;;4909665;29;20047;-61
2022/03/23 00:16:06;;;;;;;27.67;15.90;;;3.50;83.00;;;;;;4909967;29;20173;-61
2022/03/23 00:18:33;;;;;;;25.85;15.77;;;3.50;83.60;;;;;;4908878;29;20043;-61
2022/03/23 00:21:01;;;;;;;29.50;15.32;;;3.50;83.80;;;;;;4907688;28;20118;-61
2022/03/23 00:23:28;;;;;;;30.15;17.95;;;3.50;84.00;;;;;;4908101;29;20051;-61
2022/03/23 00:25:55;;;;;;;34.00;17.65;;;3.40;84.90;;;;;;4909000;29;20031;-61
2022/03/23 00:28:21;;;;;;;;;;;3.40;85.30;;;;;;4909577;29;20058;-61
2022/03/23 00:30:49;;;;;;;28.53;16.30;;;3.30;85.80;;;;;;4907978;28;19922;-60
2022/03/23 00:33:29;;;;;;;25.08;16.23;;;3.30;85.90;;;;;;4908031;29;20028;-61
2022/03/23 00:35:56;;;;;;;35.72;17.08;;;3.30;85.70;;;;;;4910047;29;20039;-61
2022/03/23 00:38:23;;;;;;;32.35;18.75;;;3.20;85.80;;;;;;4903533;29;20051;-61
2022/03/23 00:40:51;;;;;;;30.65;18.05;;;3.20;86.20;;;;;;4907967;28;20297;-61
2022/03/23 00:43:18;;;;;;;29.27;15.43;;;3.20;86.50;;;;;;4908667;29;20544;-61
2022/03/23 00:45:45;;;;;;;30.50;17.33;;;3.20;86.30;;;;;;4908523;29;20046;-61
2022/03/23 00:48:12;;;;;;;30.17;17.33;;;3.20;86.60;;;;;;4906788;29;20058;-61
2022/03/23 00:50:38;;;;;;;;;;;3.20;86.80;;;;;;4907180;28;20556;-61
2022/03/23 00:53:06;;;;;;;26.83;16.35;;;3.20;86.90;;;;;;4906275;29;19922;-61
2022/03/23 00:55:33;;;;;;;28.40;17.17;;;3.20;87.60;;;;;;4908237;28;20779;-61
2022/03/23 00:58:00;;;;;;;30.45;17.45;;;3.20;88.30;;;;;;4908297;29;20047;-61
2022/03/23 01:00:27;;;;;;;33.00;18.02;;;3.10;88.60;;;;;;4906709;28;20066;-61
2022/03/23 01:02:54;;;;;;;33.17;16.80;;;3.10;88.70;;;;;;4905771;29;20052;-61
2022/03/23 01:05:21;;;;;;;28.05;17.15;;;3.10;88.50;;;;;;4908797;29;20382;-61
2022/03/23 01:07:48;;;;;;;;;;;3.10;88.60;;;;;;4906516;29;20221;-61
2022/03/23 01:10:15;;;;;;;40.70;18.20;;;3.10;88.60;;;;;;4888540;29;20602;-61
2022/03/23 01:12:44;;;;;;;30.33;17.23;;;3.10;88.70;;;;;;4904657;29;20627;-61
2022/03/23 01:15:15;;;;;;;30.08;16.40;;;3.10;89.10;;;;;;4907747;29;20051;-60
2022/03/23 01:17:42;;;;;;;27.08;16.25;;;3.10;89.10;;;;;;4904804;29;20166;-61
2022/03/23 01:20:14;;;;;;;29.55;16.15;;;3.10;89.20;;;;;;4904770;29;20570;-61
2022/03/23 01:22:43;;;;;;;26.30;15.43;;;3.10;88.90;;;;;;4907210;29;20336;-61
2022/03/23 01:25:15;;;;;;;28.17;16.20;;;3.10;88.90;;;;;;4907363;29;20039;-62
2022/03/23 01:27:44;;;;;;;25.33;15.98;;;3.10;89.00;;;;;;4907322;29;20058;-61
2022/03/23 01:30:12;;;;;;;25.48;16.35;;;3.10;88.90;;;;;;4889629;29;20233;-62
2022/03/23 01:32:41;;;;;;;26.77;16.25;;;3.10;88.80;;;;;;4907419;29;20556;-62
2022/03/23 01:35:09;;;;;;;29.55;16.60;;;3.10;88.70;;;;;;4906591;29;20346;-61
2022/03/23 01:37:36;;;;;;;27.23;16.67;;;3.10;88.70;;;;;;4906606;29;20047;-62
2022/03/23 01:40:06;;;;;;;25.95;15.40;;;3.10;88.60;;;;;;4905824;28;20063;-61
2022/03/23 01:42:36;;;;;;;26.50;15.20;;;3.10;88.60;;;;;;4907274;29;20044;-62
2022/03/23 01:45:05;;;;;;;30.40;16.85;;;3.10;88.60;;;;;;4872890;29;20043;-62
2022/03/23 01:47:33;;;;;;;26.80;16.20;;;3.10;89.30;;;;;;4904360;29;20731;-62
2022/03/23 01:50:00;;;;;;;31.50;16.27;;;3.00;89.50;;;;;;4886930;29;20065;-61
2022/03/23 01:52:29;;;;;;;24.02;15.43;;;3.00;89.50;;;;;;4906173;29;20027;-61
2022/03/23 01:55:07;;;;;;;25.98;14.93;;;3.00;89.80;;;;;;4904246;29;20035;-61
2022/03/23 01:57:35;;;;;;;26.63;15.50;;;2.90;90.00;;;;;;4888743;29;20047;-61
2022/03/23 02:00:05;;;;;;;22.98;14.25;;;2.90;90.00;;;;;;4905815;28;20071;-61
2022/03/23 02:02:43;;;;;;;28.52;16.08;;;2.90;90.10;;;;;;4907087;29;20055;-61
2022/03/23 02:05:14;;;;;;;31.58;16.13;;;2.80;90.30;;;;;;4888051;28;20166;-62
2022/03/23 02:07:51;;;;;;;26.20;15.63;;;2.80;90.40;;;;;;4902088;29;20807;-61
2022/03/23 02:10:19;;;;;;;32.88;16.92;;;2.70;90.50;;;;;;4886356;29;20039;-61
2022/03/23 02:12:53;;;;;;;36.05;19.63;;;2.70;90.60;;;;;;4903769;29;20043;-61
2022/03/23 02:15:21;;;;;;;;;;;2.60;90.90;;;;;;4904096;29;20047;-61
2022/03/23 02:17:53;;;;;;;35.85;18.60;;;2.60;91.10;;;;;;4906834;28;19922;-61
2022/03/23 02:20:20;;;;;;;31.75;18.33;;;2.60;91.10;;;;;;4902827;29;20985;-61
2022/03/23 02:22:48;;;;;;;28.67;16.65;;;2.60;91.40;;;;;;4905851;29;20031;-62
2022/03/23 02:25:21;;;;;;;29.38;17.85;;;2.60;91.40;;;;;;4903332;29;20051;-61
2022/03/23 02:27:50;;;;;;;34.08;18.85;;;2.60;91.60;;;;;;4905358;29;20744;-61
2022/03/23 02:30:18;;;;;;;28.63;16.90;;;2.50;92.30;;;;;;4905505;28;20560;-61
2022/03/23 02:32:45;;;;;;;30.58;18.08;;;2.50;92.20;;;;;;4906569;29;20039;-61
2022/03/23 02:35:12;;;;;;;34.28;17.90;;;2.50;92.20;;;;;;4905534;29;20737;-61
2022/03/23 02:37:39;;;;;;;;;;;2.50;92.30;;;;;;4905401;29;20066;-61
2022/03/23 02:40:08;;;;;;;28.73;16.88;;;2.50;92.30;;;;;;4903818;29;19929;-60
2022/03/23 02:42:37;;;;;;;34.17;18.08;;;2.50;92.40;;;;;;4906268;29;20051;-61
2022/03/23 02:45:05;;;;;;;35.78;16.77;;;2.50;92.20;;;;;;4904132;29;20124;-61
2022/03/23 02:47:33;;;;;;;30.23;16.45;;;2.60;92.20;;;;;;4905361;29;20043;-61
2022/03/23 02:49:59;;;;;;;30.38;17.38;;;2.60;92.10;;;;;;4904408;28;20047;-61
2022/03/23 02:52:28;;;;;;;31.17;15.77;;;2.60;92.10;;;;;;4905196;29;20047;-61
2022/03/23 03:03:40;;;;;;;35.05;18.00;;;2.50;92.20;;;;;;4905738;29;20050;-59
2022/03/23 03:06:07;;;;;;;;;;;2.50;92.20;;;;;;4907074;29;20043;-61
2022/03/23 03:08:47;;;;;;;30.35;16.77;;;2.50;92.30;;;;;;4904615;29;19933;-62
2022/03/23 03:11:22;;;;;;;25.30;15.85;;;2.50;92.80;;;;;;4906784;28;20044;-62
2022/03/23 03:13:51;;;;;;;27.15;15.52;;;2.50;92.90;;;;;;4905873;29;20086;-62
2022/03/23 03:16:19;;;;;;;28.33;15.55;;;2.50;92.80;;;;;;4906773;29;20358;-61
2022/03/23 03:18:46;;;;;;;29.92;17.13;;;2.40;92.70;;;;;;4907769;28;20047;-62
2022/03/23 03:21:14;;;;;;;27.88;15.90;;;2.50;93.10;;;;;;4908114;28;20122;-62
2022/03/23 03:23:42;;;;;;;29.58;16.50;;;2.40;93.20;;;;;;4910073;29;20075;-62
2022/03/23 03:26:11;;;;;;;32.15;16.55;;;2.40;93.20;;;;;;4902855;28;20622;-62
2022/03/23 03:28:40;;;;;;;25.23;14.30;;;2.40;93.00;;;;;;4901105;29;20085;-62
2022/03/23 03:31:09;;;;;;;22.48;13.88;;;2.40;92.90;;;;;;4909916;29;20211;-61
2022/03/23 03:33:38;;;;;;;26.30;14.68;;;2.40;92.80;;;;;;4909786;28;20533;-62
2022/03/23 03:36:06;;;;;;;25.10;13.73;;;2.30;92.80;;;;;;4909939;29;20066;-62
2022/03/23 03:38:33;;;;;;;25.67;14.90;;;2.30;92.90;;;;;;4908696;29;20050;-62
2022/03/23 03:41:02;;;;;;;29.13;15.48;;;2.30;92.80;;;;;;4909765;28;20039;-61
2022/03/23 03:43:30;;;;;;;26.60;15.18;;;2.30;92.90;;;;;;4889258;29;20067;-61
2022/03/23 03:45:58;;;;;;;25.02;14.07;;;2.30;93.00;;;;;;4890539;29;20440;-62
2022/03/23 03:48:25;;;;;;;25.55;14.65;;;2.40;93.00;;;;;;4888519;29;20047;-62
2022/03/23 03:50:52;;;;;;;22.98;14.40;;;2.40;93.10;;;;;;4889573;29;20155;-61
2022/03/23 03:53:19;;;;;;;;;;;2.30;92.80;;;;;;4889218;29;20211;-60
2022/03/23 03:55:54;;;;;;;24.73;13.43;;;2.30;92.80;;;;;;4890518;29;20471;-62
2022/03/23 03:58:21;;;;;;;23.75;13.65;;;2.30;93.00;;;;;;4890027;29;20158;-62
2022/03/23 04:00:48;;;;;;;25.65;15.48;;;2.30;92.80;;;;;;4885223;29;20702;-62
2022/03/23 04:03:16;;;;;;;24.00;13.93;;;2.30;92.60;;;;;;4871570;29;20593;-59
2022/03/23 04:05:44;;;;;;;28.15;14.60;;;2.40;92.60;;;;;;4869772;29;20804;-59
2022/03/23 04:08:11;;;;;;;20.70;13.18;;;2.40;92.70;;;;;;4878522;29;20430;-60
2022/03/23 04:10:38;;;;;;;24.92;13.25;;;2.40;92.60;;;;;;4888360;29;20584;-60
2022/03/23 04:13:08;;;;;;;20.63;13.20;;;2.40;92.70;;;;;;4890833;29;20039;-60
2022/03/23 04:15:36;;;;;;;23.80;12.95;;;2.40;92.70;;;;;;4904430;29;20043;-60
2022/03/23 04:18:03;;;;;;;32.90;14.27;;;2.30;92.50;;;;;;4867074;29;20043;-60
2022/03/23 04:20:30;;;;;;;23.38;13.88;;;2.30;92.40;;;;;;4886956;29;20517;-60
2022/03/23 04:22:57;;;;;;;23.45;13.25;;;2.30;92.50;;;;;;4888135;29;20501;-60
2022/03/23 04:25:24;;;;;;;26.05;14.65;;;2.30;92.90;;;;;;4886333;29;20133;-60
2022/03/23 04:27:56;;;;;;;23.75;14.23;;;2.20;93.00;;;;;;4885980;29;20065;-60
2022/03/23 04:30:28;;;;;;;20.98;12.93;;;2.20;93.10;;;;;;4884717;29;20047;-60
2022/03/23 04:32:54;;;;;;;28.30;14.57;;;2.10;93.10;;;;;;4885095;29;20044;-60
2022/03/23 04:35:22;;;;;;;26.33;15.73;;;2.10;93.10;;;;;;4884038;29;21009;-60
2022/03/23 04:37:50;;;;;;;30.25;14.68;;;2.10;93.10;;;;;;4886985;29;20515;-60
2022/03/23 04:40:17;;;;;;;31.25;15.15;;;2.00;94.00;;;;;;4885864;29;20048;-60
2022/03/23 04:42:45;;;;;;;28.20;16.98;;;2.00;94.30;;;;;;4900151;28;20210;-60
2022/03/23 04:45:13;;;;;;;30.23;15.63;;;2.00;93.90;;;;;;4905750;29;20051;-60
2022/03/23 04:47:41;;;;;;;29.02;14.82;;;2.00;93.40;;;;;;4905671;29;20623;-60
2022/03/23 04:50:09;;;;;;;27.60;14.65;;;2.00;93.40;;;;;;4903727;28;20475;-60
2022/03/23 04:52:41;;;;;;;37.55;16.02;;;2.10;93.40;;;;;;4905158;29;20050;-60
2022/03/23 04:55:09;;;;;;;23.63;14.43;;;2.10;93.30;;;;;;4905705;29;20055;-60
2022/03/23 04:57:37;;;;;;;26.13;14.77;;;2.20;93.50;;;;;;4902788;29;20124;-60
2022/03/23 05:00:10;;;;;;;24.50;14.88;;;2.20;93.30;;;;;;4904972;28;20843;-60
2022/03/23 05:02:44;;;;;;;28.52;15.43;;;2.20;93.20;;;;;;4906217;29;20043;-60
2022/03/23 05:05:12;;;;;;;25.23;13.50;;;2.20;93.20;;;;;;4906088;29;20377;-60
2022/03/23 05:07:40;;;;;;;22.90;14.13;;;2.20;93.20;;;;;;4904258;29;20830;-60
2022/03/23 05:10:08;;;;;;;24.30;15.13;;;2.20;93.10;;;;;;4904377;28;20130;-60
2022/03/23 05:12:40;;;;;;;29.52;16.52;;;2.20;93.10;;;;;;4905649;28;20039;-61
2022/03/23 05:15:08;;;;;;;35.95;17.58;;;2.20;93.20;;;;;;4904829;29;20047;-61
2022/03/23 05:17:36;;;;;;;23.13;14.82;;;2.10;93.40;;;;;;4906141;29;20300;-60
2022/03/23 05:20:04;;;;;;;32.97;17.17;;;2.10;93.50;;;;;;4887428;29;20357;-61
2022/03/23 05:22:32;;;;;;;27.50;16.05;;;2.10;93.60;;;;;;4888158;29;20047;-61
2022/03/23 05:24:59;;;;;;;34.70;17.58;;;2.10;93.90;;;;;;4905024;29;20317;-61
2022/03/23 05:27:26;;;;;;;29.48;16.70;;;2.00;94.20;;;;;;4903958;29;20431;-61
2022/03/23 05:29:53;;;;;;;27.50;16.25;;;2.00;94.10;;;;;;4905499;28;20035;-61
2022/03/23 05:32:20;;;;;;;24.95;16.13;;;2.00;94.10;;;;;;4903798;29;20133;-62
2022/03/23 05:34:49;;;;;;;29.20;16.35;;;1.90;94.10;;;;;;4904312;29;20899;-51
2022/03/23 05:37:16;;;;;;;31.05;16.77;;;2.00;94.70;;;;;;4903580;28;20055;-59
2022/03/23 05:39:46;;;;;;;27.98;15.82;;;2.00;94.90;;;;;;4901638;28;20893;-59
2022/03/23 05:42:13;;;;;;;30.63;16.20;;;2.00;94.60;;;;;;4904744;28;20059;-59
2022/03/23 05:44:40;;;;;;;;;;;2.10;94.40;;;;;;4905276;29;20051;-59
2022/03/23 05:47:07;;;;;;;49.28;18.20;;;2.20;94.40;;;;;;4904589;28;19926;-60
2022/03/23 05:49:34;;;;;;;30.38;15.50;;;2.30;94.50;;;;;;4901824;28;20684;-58
2022/03/23 05:52:01;;;;;;;28.02;18.17;;;2.30;94.50;;;;;;4904441;29;20468;-59
2022/03/23 05:54:28;;;;;;;30.25;16.58;;;2.40;94.50;;;;;;4904452;29;20298;-59
2022/03/23 05:56:55;;;;;;;26.02;16.55;;;2.40;94.20;;;;;;4906978;29;20055;-60
2022/03/23 05:59:22;;;;;;;28.98;16.98;;;2.50;94.20;;;;;;4903372;29;20998;-59
2022/03/23 06:01:49;;;;;;;;;;;2.50;94.50;;;;;;4906930;28;20139;-59
2022/03/23 06:04:16;;;;;;;30.27;17.40;;;2.50;94.80;;;;;;4906176;29;19922;-59
2022/03/23 06:06:43;;;;;;;32.60;16.75;;;2.60;95.10;;;;;;4906512;29;20595;-59
2022/03/23 06:09:11;;;;;;;;;;;2.60;95.10;;;;;;4905139;29;20055;-58
2022/03/23 06:11:38;;;;;;;33.42;18.13;;;2.70;94.90;;;;;;4902971;28;19930;-59
2022/03/23 06:14:05;;;;;;;32.50;17.42;;;2.80;94.50;;;;;;4905299;28;20387;-59
2022/03/23 06:16:32;;;;;;;28.95;16.92;;;2.90;94.20;;;;;;4908019;28;20829;-59
2022/03/23 06:18:59;;;;;;;29.75;17.90;;;3.00;94.00;;;;;;4911458;28;20706;-58
2022/03/23 06:21:26;;;;;;;31.50;17.70;;;3.10;94.60;;;;;;4905591;28;20051;-58
2022/03/23 06:23:53;;;;;;;31.98;17.95;;;3.20;94.60;;;;;;4903182;29;20324;-58
2022/03/23 06:26:23;;;;;;;29.67;17.65;;;3.30;94.10;;;;;;4871294;29;20043;-58
2022/03/23 06:28:50;;;;;;;30.80;17.13;;;3.40;94.00;;;;;;4903720;28;20653;-58
2022/03/23 06:31:17;;;;;;;33.90;18.92;;;3.50;93.70;;;;;;4903989;28;20346;-59
2022/03/23 06:33:44;;;;;;;29.30;16.70;;;3.60;93.60;;;;;;4905185;29;20410;-57
2022/03/23 06:36:11;;;;;;;;;;;3.70;93.60;;;;;;4906959;29;20182;-59
2022/03/23 06:38:38;;;;;;;33.78;18.17;;;3.80;93.30;;;;;;4905152;29;20032;-58
2022/03/23 06:41:05;;;;;;;31.08;18.27;;;4.00;93.20;;;;;;4904079;28;20348;-58
2022/03/23 06:43:31;;;;;;;;;;;4.20;93.10;;;;;;4905187;29;20032;-57
2022/03/23 06:45:59;;;;;;;31.10;17.77;;;4.40;92.40;;;;;;4903387;28;20012;-59
2022/03/23 06:48:26;;;;;;;33.53;17.75;;;4.60;91.80;;;;;;4889225;29;20050;-58
2022/03/23 06:50:53;;;;;;;35.28;17.77;;;4.90;91.70;;;;;;4896156;28;20062;-56
2022/03/23 06:53:20;;;;;;;;;;;5.20;91.20;;;;;;4900322;28;20063;-54
2022/03/23 06:55:48;;;;;;;32.40;19.00;;;5.60;90.60;;;;;;4883518;29;20837;-55
2022/03/23 06:58:15;;;;;;;31.15;17.13;;;5.90;88.60;;;;;;4899853;29;20605;-54
2022/03/23 07:00:42;;;;;;;31.08;17.67;;;6.40;86.20;;;;;;4900950;28;20389;-53
2022/03/23 07:03:09;;;;;;;30.77;17.90;;;6.80;83.20;;;;;;4901868;29;20131;-55
2022/03/23 07:05:36;;;;;;;30.60;17.40;;;7.10;80.20;;;;;;4904200;28;20548;-58
2022/03/23 07:10:53;;;;;;;29.88;17.83;;;7.60;80.40;;;;;;4899565;28;20043;-54
2022/03/23 07:13:20;;;;;;;;;;;7.70;77.90;;;;;;4902588;29;20771;-54
2022/03/23 07:15:47;;;;;;;31.70;19.08;;;7.70;77.60;;;;;;4898898;29;20406;-56
2022/03/23 07:18:14;;;;;;;30.73;18.42;;;7.70;76.50;;;;;;4896647;29;20045;-54
2022/03/23 07:20:41;;;;;;;31.02;18.77;;;7.80;78.00;;;;;;4881918;29;20826;-58
2022/03/23 07:23:08;;;;;;;28.80;17.35;;;7.80;78.80;;;;;;4900123;28;20669;-57
2022/03/23 07:25:35;;;;;;;28.02;18.45;;;7.90;79.10;;;;;;4883632;29;20821;-58
2022/03/23 07:28:02;;;;;;;;;;;8.00;79.40;;;;;;4902198;29;20433;-59
2022/03/23 07:30:33;;;;;;;32.70;18.15;;;8.20;78.90;;;;;;4898784;28;19949;-59
2022/03/23 07:33:04;;;;;;;27.23;18.35;;;8.60;77.20;;;;;;4899418;29;20340;-55
2022/03/23 07:35:31;;;;;;;29.65;16.45;;;9.00;76.00;;;;;;4900539;29;20424;-58
2022/03/23 07:37:58;;;;;;;;;;;9.60;72.50;;;;;;4902188;29;20047;-55
2022/03/23 07:40:24;;;;;;;30.38;17.23;;;10.00;71.00;;;;;;4898137;28;19926;-56
2022/03/23 07:42:51;;;;;;;31.13;17.63;;;10.50;68.10;;;;;;4901853;29;20138;-53
2022/03/23 07:45:18;;;;;;;29.60;17.13;;;11.00;66.70;;;;;;4900360;28;20145;-56
2022/03/23 07:47:45;;;;;;;30.08;18.45;;;11.40;64.70;;;;;;4897149;29;20842;-57
2022/03/23 07:50:12;;;;;;;34.03;18.73;;;11.90;60.40;;;;;;4885113;29;20816;-55
2022/03/23 07:52:39;;;;;;;32.47;18.98;;;12.20;60.60;;;;;;4891239;29;20497;-55
2022/03/23 07:55:06;;;;;;;;;;;12.60;58.90;;;;;;4901910;29;20051;-54
2022/03/23 07:57:33;;;;;;;36.67;18.58;;;12.80;57.70;;;;;;4897812;28;19933;-57
2022/03/23 08:00:00;;;;;;;;;;;13.10;56.70;;;;;;4898496;29;20466;-56
2022/03/23 08:02:27;;;;;;;30.70;17.45;;;13.40;56.40;;;;;;4899307;29;19934;-56
2022/03/23 08:04:56;;;;;;;30.23;17.17;;;13.80;55.80;;;;;;4900780;28;20616;-57
2022/03/23 08:07:23;;;;;;;34.28;17.83;;;14.20;54.30;;;;;;4903430;29;20306;-54
2022/03/23 08:09:50;;;;;;;;;;;14.40;53.70;;;;;;4902012;28;20074;-56
2022/03/23 08:12:17;;;;;;;26.70;17.00;;;14.70;53.60;;;;;;4901283;28;19930;-58
2022/03/23 08:14:46;;;;;;;31.95;18.27;;;15.00;49.00;;;;;;4887051;29;20415;-56
2022/03/23 08:17:18;;;;;;;28.20;18.38;;;15.10;49.10;;;;;;4902179;29;20919;-56
2022/03/23 08:20:32;;;;;;;32.08;19.33;;;15.20;49.70;;;;;;4902174;28;20814;-57
2022/03/23 08:22:37;;;;;;;30.02;17.80;;;15.20;49.20;;;;;;4904488;28;20357;-56
2022/03/23 08:25:04;;;;;;;26.02;17.20;;;15.40;51.10;;;;;;4904568;29;21000;-57
2022/03/23 08:27:31;;;;;;;27.48;17.00;;;15.70;49.00;;;;;;4902732;29;20082;-58
2022/03/23 08:29:58;;;;;;;31.88;18.02;;;15.90;44.80;;;;;;4904172;28;20039;-58
2022/03/23 08:32:26;;;;;;;;;;;16.10;43.30;;;;;;4904970;29;20607;-57
2022/03/23 08:34:53;;;;;;;26.00;17.58;;;16.30;45.70;;;;;;4901329;29;20569;-58
2022/03/23 08:37:20;;;;;;;31.25;18.85;;;16.60;45.50;;;;;;4904713;29;20054;-58
2022/03/23 08:39:48;;;;;;;29.25;17.92;;;16.90;42.70;;;;;;4901738;28;20318;-58
2022/03/23 08:42:14;;;;;;;;;;;17.20;41.70;;;;;;4905669;29;20055;-64
2022/03/23 08:44:41;;;;;;;29.30;18.17;;;17.40;40.20;;;;;;4904005;29;20244;-58
2022/03/23 08:47:09;;;;;;;24.73;16.60;;;17.50;40.90;;;;;;4903491;29;20145;-53
2022/03/23 08:49:35;;;;;;;25.67;17.73;;;17.70;40.90;;;;;;4891129;29;20136;-52
2022/03/23 08:52:02;;;;;;;;;;;17.80;40.30;;;;;;4888837;29;20047;-52
2022/03/23 08:54:29;;;;;;;28.95;16.80;;;17.80;40.30;;;;;;4903932;29;20518;-49
2022/03/23 08:56:56;;;;;;;30.90;17.38;;;17.80;38.60;;;;;;4902482;29;20054;-53
2022/03/23 08:59:23;;;;;;;;;;;17.60;39.00;;;;;;4903920;29;20051;-51
2022/03/23 09:01:50;;;;;;;31.05;18.33;;;17.30;40.50;;;;;;4885540;29;19926;-58
2022/03/23 09:04:17;;;;;;;27.90;18.02;;;17.30;42.50;;;;;;4904841;29;20054;-59
2022/03/23 09:06:44;;;;;;;;;;;17.40;42.30;;;;;;4904927;29;20801;-58
2022/03/23 09:09:11;;;;;;;36.90;19.42;;;17.60;42.60;;;;;;4903150;29;20620;-59
2022/03/23 09:11:38;;;;;;;27.58;18.05;;;17.90;42.80;;;;;;4899738;28;20616;-58
2022/03/23 09:14:04;;;;;;;;;;;18.20;41.10;;;;;;4904716;29;20326;-59
2022/03/23 09:16:31;;;;;;;25.98;17.92;;;18.40;40.10;;;;;;4903222;28;20394;-56
2022/03/23 09:18:59;;;;;;;26.63;17.33;;;18.50;40.90;;;;;;4884263;29;20130;-58
2022/03/23 09:21:26;;;;;;;29.25;17.52;;;18.50;40.70;;;;;;4902220;29;20055;-57
2022/03/23 09:24:00;;;;;;;25.83;18.42;;;18.60;40.30;;;;;;4901266;29;20050;-57
2022/03/23 09:26:28;;;;;;;;;;;18.70;41.00;;;;;;4903701;29;20720;-58
2022/03/23 09:28:55;;;;;;;32.08;19.45;;;18.80;40.40;;;;;;4884096;29;20288;-55
2022/03/23 09:31:23;;;;;;;28.23;17.55;;;19.00;39.70;;;;;;4902639;28;20138;-58
2022/03/23 09:33:50;;;;;;;29.17;17.98;;;19.10;39.90;;;;;;4900838;29;20264;-57
2022/03/23 09:39:04;;;;;;;31.33;18.02;;;19.30;41.30;;;;;;4903098;29;20854;-59
2022/03/23 09:41:33;;;;;;;29.17;18.48;;;19.40;40.50;;;;;;4901357;28;20479;-58
2022/03/23 09:44:00;;;;;;;27.45;19.38;;;19.60;39.90;;;;;;4903743;29;20222;-58
2022/03/23 09:46:27;;;;;;;26.27;15.93;;;19.70;39.60;;;;;;4903048;29;20043;-57
2022/03/23 09:48:54;;;;;;;30.20;17.75;;;19.70;40.00;;;;;;4895655;29;20043;-59
2022/03/23 09:51:21;;;;;;;27.40;17.85;;;19.70;40.60;;;;;;4883943;29;20093;-58
2022/03/23 09:53:49;;;;;;;22.25;16.45;;;19.60;40.50;;;;;;4901143;29;20043;-58
2022/03/23 09:56:16;;;;;;;23.20;17.48;;;19.50;39.50;;;;;;4903414;29;20703;-59
2022/03/23 09:58:43;;;;;;;27.73;17.38;;;19.40;40.30;;;;;;4903332;29;20123;-59
2022/03/23 10:01:34;;;;;;;32.35;19.50;;;19.40;40.80;;;;;;4853131;29;20430;-59
2022/03/23 10:04:12;;;;;;;27.00;19.10;;;19.50;39.40;;;;;;4883859;29;20228;-59
2022/03/23 10:06:47;;;;;;;;;;;19.40;40.40;;;;;;4904409;29;20212;-58
2022/03/23 10:09:26;;;;;;;28.35;18.70;;;19.30;39.70;;;;;;4901916;28;19926;-58
2022/03/23 10:12:30;;;;;;;34.95;18.58;;;19.40;40.00;;;;;;4903358;28;20058;-56
2022/03/23 10:15:34;;;;;;;30.63;17.58;;;19.60;39.80;;;;;;4905293;29;20048;-57
2022/03/23 10:18:36;;;;;;;25.50;19.35;;;19.90;38.70;;;;;;4901266;29;20396;-57
2022/03/23 10:21:03;;;;;;;30.85;17.95;;;20.10;39.10;;;;;;4901255;28;20360;-57
2022/03/23 10:23:30;;;;;;;25.90;18.50;;;20.20;38.40;;;;;;4901535;28;20224;-57
2022/03/23 10:26:09;;;;;;;27.15;19.55;;;20.30;38.40;;;;;;4903076;28;20364;-59
2022/03/23 10:28:36;;;;;;;24.92;17.88;;;20.30;37.40;;;;;;4899922;28;20511;-59
2022/03/23 10:31:15;;;;;;;27.73;18.50;;;20.20;39.00;;;;;;4901772;28;20635;-59
2022/03/23 10:33:42;;;;;;;24.73;18.02;;;20.00;37.50;;;;;;4902824;29;20440;-59
2022/03/23 10:36:09;;;;;;;28.00;18.98;;;19.80;38.20;;;;;;4899790;29;20047;-58
2022/03/23 10:38:40;;;;;;;26.90;17.95;;;19.80;39.40;;;;;;4901454;29;20070;-59
2022/03/23 10:41:23;;;;;;;25.77;17.55;;;19.80;39.20;;;;;;4900846;28;20114;-59
2022/03/23 10:43:50;;;;;;;27.80;16.60;;;19.90;39.00;;;;;;4903580;29;20440;-60
2022/03/23 10:46:17;;;;;;;21.85;16.50;;;20.00;39.30;;;;;;4899828;29;20498;-59
2022/03/23 10:48:58;;;;;;;21.40;15.93;;;20.20;37.80;;;;;;4904198;28;20463;-59
2022/03/23 10:51:30;;;;;;;24.15;16.17;;;20.40;36.80;;;;;;4884105;29;20086;-59
2022/03/23 10:53:58;;;;;;;21.67;15.60;;;20.50;36.80;;;;;;4901025;29;20309;-59
2022/03/23 10:56:34;;;;;;;25.58;16.30;;;20.70;37.70;;;;;;4900733;29;20407;-59
2022/03/23 10:59:37;;;;;;;26.52;16.38;;;20.90;36.00;;;;;;4900457;29;20488;-59
2022/03/23 11:02:10;;;;;;;19.65;13.30;;;21.10;34.90;;;;;;4901279;29;20210;-59
2022/03/23 11:04:53;;;;;;;15.65;12.50;;;21.20;33.40;;;;;;4900221;29;20042;-60
2022/03/23 11:07:29;;;;;;;23.17;16.95;;;21.30;33.60;;;;;;4884275;29;20047;-60
2022/03/23 11:15:49;;;;;;;21.88;15.73;;;21.40;33.80;;;;;;4881620;29;20078;-60
2022/03/23 11:18:17;;;;;;;24.70;17.90;;;21.50;32.70;;;;;;4888782;29;20047;-60
2022/03/23 11:20:53;;;;;;;22.92;16.42;;;21.50;33.10;;;;;;4884563;29;20051;-60
2022/03/23 11:23:25;;;;;;;19.10;15.90;;;21.60;34.00;;;;;;4885098;29;20047;-60
2022/03/23 11:25:59;;;;;;;20.90;16.38;;;21.70;34.60;;;;;;4883316;29;20337;-61
2022/03/23 11:28:29;;;;;;;23.50;17.13;;;21.80;34.60;;;;;;4900697;29;20444;-61
2022/03/23 11:30:57;;;;;;;22.80;17.50;;;21.90;34.50;;;;;;4901982;28;20705;-60
2022/03/23 11:33:26;;;;;;;23.92;19.33;;;22.00;33.60;;;;;;4902503;29;20589;-60
2022/03/23 11:35:53;;;;;;;23.95;17.73;;;21.90;34.70;;;;;;4884830;29;20052;-58
2022/03/23 11:38:27;;;;;;;29.25;17.92;;;21.80;33.90;;;;;;4901197;28;20585;-58
2022/03/23 11:40:57;;;;;;;23.50;17.02;;;21.80;32.40;;;;;;4905638;28;20047;-59
2022/03/23 11:43:26;;;;;;;24.45;17.08;;;21.70;33.70;;;;;;4903308;29;20178;-59
2022/03/23 11:46:13;;;;;;;22.65;17.52;;;21.70;33.30;;;;;;4906378;29;20139;-61
2022/03/23 11:49:01;;;;;;;25.73;17.48;;;21.80;33.90;;;;;;4885966;29;20047;-60
2022/03/23 11:51:47;;;;;;;26.70;17.45;;;21.90;34.40;;;;;;4887437;29;20297;-60
2022/03/23 11:54:18;;;;;;;19.23;15.35;;;21.90;31.10;;;;;;4904810;29;20185;-60
2022/03/23 11:56:58;;;;;;;21.52;16.63;;;21.90;32.20;;;;;;4904138;29;20043;-59
2022/03/23 11:59:29;;;;;;;21.90;16.75;;;22.00;32.60;;;;;;4904546;29;20290;-57
2022/03/23 12:01:58;;;;;;;27.92;16.67;;;22.10;31.80;;;;;;4903828;28;20471;-58
2022/03/23 12:04:29;;;;;;;21.80;16.67;;;22.20;31.90;;;;;;4906357;29;20083;-58
2022/03/23 12:07:06;;;;;;;23.30;17.23;;;22.10;30.70;;;;;;4903085;28;20605;-57
2022/03/23 12:09:41;;;;;;;24.80;16.55;;;21.80;31.30;;;;;;4886187;28;20044;-57
2022/03/23 12:12:37;;;;;;;20.15;16.02;;;21.60;33.30;;;;;;4902453;29;20380;-57
2022/03/23 12:15:28;;;;;;;24.70;16.70;;;21.60;32.00;;;;;;4903705;29;20043;-56
2022/03/23 12:17:58;;;;;;;29.90;16.63;;;21.70;32.30;;;;;;4895702;29;20047;-57
2022/03/23 12:20:29;;;;;;;36.40;16.23;;;21.70;31.30;;;;;;4901381;28;20058;-57
2022/03/23 12:23:29;;;;;;;22.75;16.15;;;21.60;32.40;;;;;;4904707;29;20051;-58
2022/03/23 12:26:29;;;;;;;23.98;16.77;;;21.70;30.70;;;;;;4888077;29;20047;-58
2022/03/23 12:29:08;;;;;;;20.08;16.10;;;21.60;31.00;;;;;;4902067;29;20043;-58
2022/03/23 12:31:38;;;;;;;23.95;15.88;;;21.50;31.60;;;;;;4903059;28;20517;-58
2022/03/23 12:34:11;;;;;;;24.75;17.83;;;21.50;31.80;;;;;;4904349;29;20154;-58
2022/03/23 12:36:57;;;;;;;22.20;17.55;;;21.50;32.40;;;;;;4903290;28;20865;-58
2022/03/23 12:40:01;;;;;;;26.85;17.17;;;21.60;32.30;;;;;;4901479;29;20109;-58
2022/03/23 12:42:31;;;;;;;24.73;17.77;;;21.80;31.90;;;;;;4904313;29;20054;-58
2022/03/23 12:45:07;;;;;;;23.00;17.95;;;21.80;32.00;;;;;;4903339;29;20652;-58
2022/03/23 12:47:36;;;;;;;29.83;17.80;;;21.80;33.10;;;;;;4903985;29;20187;-58
2022/03/23 12:59:21;;;;;;;28.20;18.50;;;21.80;34.30;;;;;;4902759;29;20058;-58
2022/03/23 13:01:54;;;;;;;27.55;18.98;;;21.70;34.70;;;;;;4904612;28;20299;-58
2022/03/23 13:04:40;;;;;;;26.17;18.67;;;21.70;33.30;;;;;;4886725;29;20221;-58
2022/03/23 13:07:27;;;;;;;30.92;20.65;;;21.80;33.30;;;;;;4904491;29;20312;-58
2022/03/23 13:10:12;;;;;;;30.60;19.55;;;21.70;33.00;;;;;;4893553;28;20468;-58
2022/03/23 13:12:40;;;;;;;25.55;17.83;;;21.40;32.20;;;;;;4904100;29;20541;-58
2022/03/23 13:15:14;;;;;;;24.83;18.98;;;21.10;35.20;;;;;;4904328;29;20074;-58
2022/03/23 13:17:44;;;;;;;27.67;19.88;;;21.20;34.60;;;;;;4904760;29;20474;-58
2022/03/23 13:20:15;;;;;;;22.00;16.65;;;21.30;34.70;;;;;;4903452;29;20165;-58
2022/03/23 13:22:44;;;;;;;22.77;17.35;;;21.40;35.20;;;;;;4903789;29;20062;-60
2022/03/23 13:25:17;;;;;;;26.20;17.58;;;21.50;35.80;;;;;;4886379;29;20444;-59